sensor_id;sensor_type;location;lat;lon;timestamp;pressure;altitude;pressure_sealevel;temperature;humidity
62632;BME280;48703;51.248;-0.546;2023-03-15T00:01:29;100805;;;3.74;84.04
62632;BME280;48703;51.248;-0.546;2023-03-15T00:04:31;100813;;;3.71;83.74
62632;BME280;48703;51.248;-0.546;2023-03-15T00:07:33;100821;;;3.69;83.85
62632;BME280;48703;51.248;-0.546;2023-03-15T00:10:35;100825;;;3.64;83.95
62632;BME280;48703;51.248;-0.546;2023-03-15T00:13:37;100825;;;3.59;83.86
62632;BME280;48703;51.248;-0.546;2023-03-15T00:16:39;100827;;;3.57;84.34
62632;BME280;48703;51.248;-0.546;2023-03-15T00:19:41;100830;;;3.51;84.53
62632;BME280;48703;51.248;-0.546;2023-03-15T00:22:43;100834;;;3.49;84.57
62632;BME280;48703;51.248;-0.546;2023-03-15T00:25:46;100833;;;3.46;84.33
62632;BME280;48703;51.248;-0.546;2023-03-15T00:28:47;100837;;;3.44;84.72
62632;BME280;48703;51.248;-0.546;2023-03-15T00:31:49;100845;;;3.43;84.35
62632;BME280;48703;51.248;-0.546;2023-03-15T00:34:51;100847;;;3.40;84.80
62632;BME280;48703;51.248;-0.546;2023-03-15T00:37:54;100850;;;3.36;84.95
62632;BME280;48703;51.248;-0.546;2023-03-15T00:40:55;100857;;;3.32;84.94
62632;BME280;48703;51.248;-0.546;2023-03-15T00:43:57;100860;;;3.31;84.80
62632;BME280;48703;51.248;-0.546;2023-03-15T00:46:59;100862;;;3.29;84.74
62632;BME280;48703;51.248;-0.546;2023-03-15T00:50:02;100865;;;3.28;84.96
62632;BME280;48703;51.248;-0.546;2023-03-15T00:53:04;100866;;;3.26;84.94
62632;BME280;48703;51.248;-0.546;2023-03-15T00:56:06;100866;;;3.23;85.32
62632;BME280;48703;51.248;-0.546;2023-03-15T00:59:08;100872;;;3.19;85.33
62632;BME280;48703;51.248;-0.546;2023-03-15T01:02:10;100869;;;3.15;85.75
62632;BME280;48703;51.248;-0.546;2023-03-15T01:05:12;100861;;;3.12;85.14
62632;BME280;48703;51.248;-0.546;2023-03-15T01:08:13;100857;;;3.10;85.28
62632;BME280;48703;51.248;-0.546;2023-03-15T01:11:17;100860;;;3.06;85.68
62632;BME280;48703;51.248;-0.546;2023-03-15T01:14:18;100868;;;3.04;85.28
62632;BME280;48703;51.248;-0.546;2023-03-15T01:17:20;100873;;;3.03;85.38
62632;BME280;48703;51.248;-0.546;2023-03-15T01:20:22;100871;;;3.02;85.47
62632;BME280;48703;51.248;-0.546;2023-03-15T01:23:24;100879;;;3.01;86.22
62632;BME280;48703;51.248;-0.546;2023-03-15T01:26:26;100890;;;2.96;85.91
62632;BME280;48703;51.248;-0.546;2023-03-15T01:29:28;100887;;;2.92;86.08
62632;BME280;48703;51.248;-0.546;2023-03-15T01:32:30;100887;;;2.88;85.91
62632;BME280;48703;51.248;-0.546;2023-03-15T01:35:32;100892;;;2.84;86.16
62632;BME280;48703;51.248;-0.546;2023-03-15T01:38:34;100894;;;2.81;86.41
62632;BME280;48703;51.248;-0.546;2023-03-15T01:41:36;100896;;;2.76;86.51
62632;BME280;48703;51.248;-0.546;2023-03-15T01:44:47;100904;;;2.68;85.97
62632;BME280;48703;51.248;-0.546;2023-03-15T01:47:40;100910;;;2.60;85.85
62632;BME280;48703;51.248;-0.546;2023-03-15T01:50:42;100912;;;2.56;86.57
62632;BME280;48703;51.248;-0.546;2023-03-15T01:53:46;100917;;;2.52;86.08
62632;BME280;48703;51.248;-0.546;2023-03-15T01:56:47;100921;;;2.52;86.89
62632;BME280;48703;51.248;-0.546;2023-03-15T01:59:49;100924;;;2.53;86.57
62632;BME280;48703;51.248;-0.546;2023-03-15T02:02:50;100924;;;2.56;87.06
62632;BME280;48703;51.248;-0.546;2023-03-15T02:05:53;100930;;;2.52;86.95
62632;BME280;48703;51.248;-0.546;2023-03-15T02:08:55;100932;;;2.47;86.96
62632;BME280;48703;51.248;-0.546;2023-03-15T02:11:56;100933;;;2.48;86.66
62632;BME280;48703;51.248;-0.546;2023-03-15T02:14:58;100927;;;2.46;86.57
62632;BME280;48703;51.248;-0.546;2023-03-15T02:18:00;100924;;;2.45;86.80
62632;BME280;48703;51.248;-0.546;2023-03-15T02:21:05;100926;;;2.41;86.45
62632;BME280;48703;51.248;-0.546;2023-03-15T02:24:06;100932;;;2.38;86.70
62632;BME280;48703;51.248;-0.546;2023-03-15T02:27:06;100939;;;2.33;86.62
62632;BME280;48703;51.248;-0.546;2023-03-15T02:30:08;100935;;;2.30;86.95
62632;BME280;48703;51.248;-0.546;2023-03-15T02:33:12;100931;;;2.29;86.71
62632;BME280;48703;51.248;-0.546;2023-03-15T02:36:14;100929;;;2.23;86.56
62632;BME280;48703;51.248;-0.546;2023-03-15T02:39:15;100937;;;2.13;86.74
62632;BME280;48703;51.248;-0.546;2023-03-15T02:42:16;100943;;;2.06;86.49
62632;BME280;48703;51.248;-0.546;2023-03-15T02:45:18;100949;;;2.04;87.27
62632;BME280;48703;51.248;-0.546;2023-03-15T02:48:20;100947;;;2.01;87.14
62632;BME280;48703;51.248;-0.546;2023-03-15T02:51:22;100946;;;1.96;86.73
62632;BME280;48703;51.248;-0.546;2023-03-15T02:54:24;100945;;;1.94;86.94
62632;BME280;48703;51.248;-0.546;2023-03-15T02:57:26;100945;;;1.93;87.51
62632;BME280;48703;51.248;-0.546;2023-03-15T03:00:28;100941;;;1.93;87.42
62632;BME280;48703;51.248;-0.546;2023-03-15T03:03:30;100943;;;1.93;87.81
62632;BME280;48703;51.248;-0.546;2023-03-15T03:06:32;100943;;;1.94;87.56
62632;BME280;48703;51.248;-0.546;2023-03-15T03:09:34;100939;;;1.86;87.56
62632;BME280;48703;51.248;-0.546;2023-03-15T03:12:36;100939;;;1.80;87.30
62632;BME280;48703;51.248;-0.546;2023-03-15T03:15:38;100936;;;1.75;87.17
62632;BME280;48703;51.248;-0.546;2023-03-15T03:18:40;100941;;;1.70;87.44
62632;BME280;48703;51.248;-0.546;2023-03-15T03:21:42;100940;;;1.68;88.11
62632;BME280;48703;51.248;-0.546;2023-03-15T03:24:44;100939;;;1.65;87.67
62632;BME280;48703;51.248;-0.546;2023-03-15T03:27:46;100942;;;1.61;87.13
62632;BME280;48703;51.248;-0.546;2023-03-15T03:30:48;100950;;;1.62;87.11
62632;BME280;48703;51.248;-0.546;2023-03-15T03:33:50;100956;;;1.58;87.31
62632;BME280;48703;51.248;-0.546;2023-03-15T03:36:52;100961;;;1.53;87.73
62632;BME280;48703;51.248;-0.546;2023-03-15T03:39:54;100968;;;1.47;87.54
62632;BME280;48703;51.248;-0.546;2023-03-15T03:42:56;100974;;;1.42;87.63
62632;BME280;48703;51.248;-0.546;2023-03-15T03:45:58;100980;;;1.42;87.84
62632;BME280;48703;51.248;-0.546;2023-03-15T03:49:00;100988;;;1.45;87.96
62632;BME280;48703;51.248;-0.546;2023-03-15T03:52:02;100992;;;1.42;88.26
62632;BME280;48703;51.248;-0.546;2023-03-15T03:55:04;100993;;;1.36;88.39
62632;BME280;48703;51.248;-0.546;2023-03-15T03:58:06;101008;;;1.28;87.32
62632;BME280;48703;51.248;-0.546;2023-03-15T04:01:08;101014;;;1.28;87.61
62632;BME280;48703;51.248;-0.546;2023-03-15T04:04:10;101007;;;1.29;87.78
62632;BME280;48703;51.248;-0.546;2023-03-15T04:07:12;100998;;;1.23;87.94
62632;BME280;48703;51.248;-0.546;2023-03-15T04:10:14;100993;;;1.19;88.21
62632;BME280;48703;51.248;-0.546;2023-03-15T04:13:16;100989;;;1.15;87.94
62632;BME280;48703;51.248;-0.546;2023-03-15T04:16:18;100985;;;1.10;87.90
62632;BME280;48703;51.248;-0.546;2023-03-15T04:19:20;100990;;;1.06;88.16
62632;BME280;48703;51.248;-0.546;2023-03-15T04:22:22;100997;;;1.03;88.09
62632;BME280;48703;51.248;-0.546;2023-03-15T04:25:24;100993;;;1.02;88.17
62632;BME280;48703;51.248;-0.546;2023-03-15T04:28:26;100992;;;1.01;88.23
62632;BME280;48703;51.248;-0.546;2023-03-15T04:31:28;100995;;;0.95;88.17
62632;BME280;48703;51.248;-0.546;2023-03-15T04:34:30;100997;;;0.91;88.13
62632;BME280;48703;51.248;-0.546;2023-03-15T04:37:32;100998;;;0.81;88.90
62632;BME280;48703;51.248;-0.546;2023-03-15T04:40:34;100994;;;0.75;89.06
62632;BME280;48703;51.248;-0.546;2023-03-15T04:43:36;100991;;;0.76;88.63
62632;BME280;48703;51.248;-0.546;2023-03-15T04:46:38;100990;;;0.73;89.06
62632;BME280;48703;51.248;-0.546;2023-03-15T04:49:40;100994;;;0.70;89.08
62632;BME280;48703;51.248;-0.546;2023-03-15T04:52:42;100998;;;0.67;89.19
62632;BME280;48703;51.248;-0.546;2023-03-15T04:55:44;101007;;;0.65;88.95
62632;BME280;48703;51.248;-0.546;2023-03-15T04:58:46;101012;;;0.66;89.16
62632;BME280;48703;51.248;-0.546;2023-03-15T05:01:48;101010;;;0.64;89.24
62632;BME280;48703;51.248;-0.546;2023-03-15T05:04:50;101008;;;0.55;88.66
62632;BME280;48703;51.248;-0.546;2023-03-15T05:07:52;101008;;;0.56;89.01
62632;BME280;48703;51.248;-0.546;2023-03-15T05:10:54;101005;;;0.54;89.00
62632;BME280;48703;51.248;-0.546;2023-03-15T05:13:56;101008;;;0.51;89.24
62632;BME280;48703;51.248;-0.546;2023-03-15T05:16:58;101011;;;0.50;89.37
62632;BME280;48703;51.248;-0.546;2023-03-15T05:20:00;101013;;;0.54;89.47
62632;BME280;48703;51.248;-0.546;2023-03-15T05:23:02;101008;;;0.58;88.65
62632;BME280;48703;51.248;-0.546;2023-03-15T05:26:04;101011;;;0.57;88.35
62632;BME280;48703;51.248;-0.546;2023-03-15T05:29:06;101012;;;0.52;88.39
62632;BME280;48703;51.248;-0.546;2023-03-15T05:32:08;101017;;;0.51;89.00
62632;BME280;48703;51.248;-0.546;2023-03-15T05:35:11;101024;;;0.44;89.02
62632;BME280;48703;51.248;-0.546;2023-03-15T05:38:13;101026;;;0.41;89.04
62632;BME280;48703;51.248;-0.546;2023-03-15T05:41:14;101020;;;0.39;89.40
62632;BME280;48703;51.248;-0.546;2023-03-15T05:44:16;101018;;;0.38;89.44
62632;BME280;48703;51.248;-0.546;2023-03-15T05:47:18;101019;;;0.37;89.18
62632;BME280;48703;51.248;-0.546;2023-03-15T05:50:20;101019;;;0.35;88.90
62632;BME280;48703;51.248;-0.546;2023-03-15T05:53:22;101026;;;0.32;88.65
62632;BME280;48703;51.248;-0.546;2023-03-15T05:56:25;101030;;;0.27;89.30
62632;BME280;48703;51.248;-0.546;2023-03-15T05:59:26;101031;;;0.23;89.40
62632;BME280;48703;51.248;-0.546;2023-03-15T06:02:28;101034;;;0.23;88.96
62632;BME280;48703;51.248;-0.546;2023-03-15T06:05:30;101040;;;0.24;89.27
62632;BME280;48703;51.248;-0.546;2023-03-15T06:08:33;101044;;;0.26;89.14
62632;BME280;48703;51.248;-0.546;2023-03-15T06:11:35;101041;;;0.27;89.11
62632;BME280;48703;51.248;-0.546;2023-03-15T06:14:36;101043;;;0.27;89.05
62632;BME280;48703;51.248;-0.546;2023-03-15T06:17:39;101049;;;0.24;89.17
62632;BME280;48703;51.248;-0.546;2023-03-15T06:20:41;101059;;;0.23;89.05
62632;BME280;48703;51.248;-0.546;2023-03-15T06:23:43;101063;;;0.23;89.21
62632;BME280;48703;51.248;-0.546;2023-03-15T06:26:45;101065;;;0.20;89.15
62632;BME280;48703;51.248;-0.546;2023-03-15T06:29:47;101061;;;0.22;89.48
62632;BME280;48703;51.248;-0.546;2023-03-15T06:32:49;101058;;;0.26;88.95
62632;BME280;48703;51.248;-0.546;2023-03-15T06:35:51;101061;;;0.23;89.60
62632;BME280;48703;51.248;-0.546;2023-03-15T06:38:53;101063;;;0.24;89.58
62632;BME280;48703;51.248;-0.546;2023-03-15T06:41:55;101069;;;0.22;89.32
62632;BME280;48703;51.248;-0.546;2023-03-15T06:44:57;101067;;;0.25;89.66
62632;BME280;48703;51.248;-0.546;2023-03-15T06:47:59;101064;;;0.24;90.50
62632;BME280;48703;51.248;-0.546;2023-03-15T06:51:01;101072;;;0.25;89.81
62632;BME280;48703;51.248;-0.546;2023-03-15T06:54:03;101078;;;0.30;89.62
62632;BME280;48703;51.248;-0.546;2023-03-15T06:57:05;101076;;;0.36;90.12
62632;BME280;48703;51.248;-0.546;2023-03-15T07:00:07;101076;;;0.40;90.69
62632;BME280;48703;51.248;-0.546;2023-03-15T07:03:09;101077;;;0.43;90.19
62632;BME280;48703;51.248;-0.546;2023-03-15T07:06:11;101081;;;0.49;90.23
62632;BME280;48703;51.248;-0.546;2023-03-15T07:09:13;101089;;;0.53;90.77
62632;BME280;48703;51.248;-0.546;2023-03-15T07:12:15;101096;;;0.57;90.95
62632;BME280;48703;51.248;-0.546;2023-03-15T07:15:17;101105;;;0.62;90.29
62632;BME280;48703;51.248;-0.546;2023-03-15T07:18:19;101106;;;0.68;89.63
62632;BME280;48703;51.248;-0.546;2023-03-15T07:21:21;101106;;;0.72;90.68
62632;BME280;48703;51.248;-0.546;2023-03-15T07:24:23;101107;;;0.76;91.50
62632;BME280;48703;51.248;-0.546;2023-03-15T07:27:25;101109;;;0.79;91.04
62632;BME280;48703;51.248;-0.546;2023-03-15T07:30:27;101113;;;0.85;90.87
62632;BME280;48703;51.248;-0.546;2023-03-15T07:33:29;101116;;;0.91;90.95
62632;BME280;48703;51.248;-0.546;2023-03-15T07:36:31;101118;;;0.98;90.27
62632;BME280;48703;51.248;-0.546;2023-03-15T07:39:33;101119;;;1.07;90.27
62632;BME280;48703;51.248;-0.546;2023-03-15T07:42:35;101117;;;1.12;89.78
62632;BME280;48703;51.248;-0.546;2023-03-15T07:45:37;101118;;;1.18;89.38
62632;BME280;48703;51.248;-0.546;2023-03-15T07:48:39;101117;;;1.25;90.12
62632;BME280;48703;51.248;-0.546;2023-03-15T07:51:41;101116;;;1.32;90.23
62632;BME280;48703;51.248;-0.546;2023-03-15T07:54:43;101115;;;1.40;89.81
62632;BME280;48703;51.248;-0.546;2023-03-15T07:57:45;101111;;;1.47;90.42
62632;BME280;48703;51.248;-0.546;2023-03-15T08:00:47;101109;;;1.53;90.67
62632;BME280;48703;51.248;-0.546;2023-03-15T08:03:49;101114;;;1.60;91.00
62632;BME280;48703;51.248;-0.546;2023-03-15T08:06:51;101117;;;1.68;91.02
62632;BME280;48703;51.248;-0.546;2023-03-15T08:09:53;101117;;;1.74;90.98
62632;BME280;48703;51.248;-0.546;2023-03-15T08:12:55;101119;;;1.81;91.11
62632;BME280;48703;51.248;-0.546;2023-03-15T08:15:57;101120;;;1.88;90.95
62632;BME280;48703;51.248;-0.546;2023-03-15T08:18:59;101120;;;1.95;90.95
62632;BME280;48703;51.248;-0.546;2023-03-15T08:22:01;101116;;;2.01;90.62
62632;BME280;48703;51.248;-0.546;2023-03-15T08:25:03;101114;;;2.08;91.05
62632;BME280;48703;51.248;-0.546;2023-03-15T08:28:05;101114;;;2.16;91.28
62632;BME280;48703;51.248;-0.546;2023-03-15T08:31:07;101113;;;2.24;91.89
62632;BME280;48703;51.248;-0.546;2023-03-15T08:34:09;101110;;;2.28;90.81
62632;BME280;48703;51.248;-0.546;2023-03-15T08:37:11;101109;;;2.36;90.95
62632;BME280;48703;51.248;-0.546;2023-03-15T08:40:13;101112;;;2.43;91.13
62632;BME280;48703;51.248;-0.546;2023-03-15T08:43:15;101112;;;2.49;90.54
62632;BME280;48703;51.248;-0.546;2023-03-15T08:46:17;101116;;;2.55;90.99
62632;BME280;48703;51.248;-0.546;2023-03-15T08:49:19;101115;;;2.63;91.47
62632;BME280;48703;51.248;-0.546;2023-03-15T08:52:21;101118;;;2.70;90.37
62632;BME280;48703;51.248;-0.546;2023-03-15T08:55:23;101121;;;2.76;90.20
62632;BME280;48703;51.248;-0.546;2023-03-15T08:58:25;101121;;;2.82;89.97
62632;BME280;48703;51.248;-0.546;2023-03-15T09:01:27;101122;;;2.88;89.74
62632;BME280;48703;51.248;-0.546;2023-03-15T09:04:29;101119;;;2.96;89.79
62632;BME280;48703;51.248;-0.546;2023-03-15T09:07:31;101119;;;3.03;89.06
62632;BME280;48703;51.248;-0.546;2023-03-15T09:10:33;101118;;;3.12;89.18
62632;BME280;48703;51.248;-0.546;2023-03-15T09:13:35;101117;;;3.21;88.74
62632;BME280;48703;51.248;-0.546;2023-03-15T09:16:37;101117;;;3.29;88.46
62632;BME280;48703;51.248;-0.546;2023-03-15T09:19:39;101113;;;3.37;88.23
62632;BME280;48703;51.248;-0.546;2023-03-15T09:22:41;101116;;;3.46;87.94
62632;BME280;48703;51.248;-0.546;2023-03-15T09:25:43;101112;;;3.56;87.61
62632;BME280;48703;51.248;-0.546;2023-03-15T09:28:45;101109;;;3.65;87.04
62632;BME280;48703;51.248;-0.546;2023-03-15T09:31:47;101112;;;3.74;87.31
62632;BME280;48703;51.248;-0.546;2023-03-15T09:34:49;101114;;;3.85;87.70
62632;BME280;48703;51.248;-0.546;2023-03-15T09:37:51;101115;;;3.96;88.94
62632;BME280;48703;51.248;-0.546;2023-03-15T09:40:55;101117;;;4.05;88.03
62632;BME280;48703;51.248;-0.546;2023-03-15T09:43:58;101116;;;4.12;87.66
62632;BME280;48703;51.248;-0.546;2023-03-15T09:47:01;101115;;;4.20;87.48
62632;BME280;48703;51.248;-0.546;2023-03-15T09:50:01;101118;;;4.26;86.76
62632;BME280;48703;51.248;-0.546;2023-03-15T09:53:02;101117;;;4.35;87.04
62632;BME280;48703;51.248;-0.546;2023-03-15T09:56:04;101122;;;4.43;86.50
62632;BME280;48703;51.248;-0.546;2023-03-15T09:59:05;101128;;;4.52;86.66
62632;BME280;48703;51.248;-0.546;2023-03-15T10:02:12;101132;;;4.62;86.03
62632;BME280;48703;51.248;-0.546;2023-03-15T10:05:10;101133;;;4.68;85.09
62632;BME280;48703;51.248;-0.546;2023-03-15T10:08:12;101132;;;4.73;84.37
62632;BME280;48703;51.248;-0.546;2023-03-15T10:11:14;101134;;;4.80;84.68
62632;BME280;48703;51.248;-0.546;2023-03-15T10:14:19;101135;;;4.87;84.19
62632;BME280;48703;51.248;-0.546;2023-03-15T10:17:20;101134;;;4.93;83.93
62632;BME280;48703;51.248;-0.546;2023-03-15T10:20:20;101138;;;4.99;83.11
62632;BME280;48703;51.248;-0.546;2023-03-15T10:23:22;101138;;;5.05;83.50
62632;BME280;48703;51.248;-0.546;2023-03-15T10:26:25;101137;;;5.12;83.00
62632;BME280;48703;51.248;-0.546;2023-03-15T10:29:25;101139;;;5.19;83.13
62632;BME280;48703;51.248;-0.546;2023-03-15T10:32:29;101135;;;5.26;83.11
62632;BME280;48703;51.248;-0.546;2023-03-15T10:35:30;101139;;;5.34;82.71
62632;BME280;48703;51.248;-0.546;2023-03-15T10:38:31;101139;;;5.40;81.45
62632;BME280;48703;51.248;-0.546;2023-03-15T10:41:36;101144;;;5.44;81.01
62632;BME280;48703;51.248;-0.546;2023-03-15T10:44:36;101144;;;5.49;81.44
62632;BME280;48703;51.248;-0.546;2023-03-15T10:47:39;101147;;;5.55;81.52
62632;BME280;48703;51.248;-0.546;2023-03-15T10:50:39;101146;;;5.61;81.58
62632;BME280;48703;51.248;-0.546;2023-03-15T10:53:50;101147;;;5.65;81.03
62632;BME280;48703;51.248;-0.546;2023-03-15T10:56:45;101145;;;5.69;80.81
62632;BME280;48703;51.248;-0.546;2023-03-15T10:59:52;101144;;;5.73;80.66
62632;BME280;48703;51.248;-0.546;2023-03-15T11:02:48;101144;;;5.78;80.61
62632;BME280;48703;51.248;-0.546;2023-03-15T11:05:50;101141;;;5.83;80.67
62632;BME280;48703;51.248;-0.546;2023-03-15T11:08:51;101141;;;5.88;80.05
62632;BME280;48703;51.248;-0.546;2023-03-15T11:11:56;101139;;;5.93;79.89
62632;BME280;48703;51.248;-0.546;2023-03-15T11:14:56;101137;;;6.00;80.03
62632;BME280;48703;51.248;-0.546;2023-03-15T11:17:57;101135;;;6.06;79.38
62632;BME280;48703;51.248;-0.546;2023-03-15T11:21:00;101132;;;6.12;79.45
62632;BME280;48703;51.248;-0.546;2023-03-15T11:24:02;101133;;;6.19;79.31
62632;BME280;48703;51.248;-0.546;2023-03-15T11:27:08;101133;;;6.26;79.48
62632;BME280;48703;51.248;-0.546;2023-03-15T11:30:11;101130;;;6.36;79.70
62632;BME280;48703;51.248;-0.546;2023-03-15T11:33:08;101126;;;6.45;79.35
62632;BME280;48703;51.248;-0.546;2023-03-15T11:36:12;101123;;;6.53;79.04
62632;BME280;48703;51.248;-0.546;2023-03-15T11:39:12;101119;;;6.59;78.86
62632;BME280;48703;51.248;-0.546;2023-03-15T11:42:16;101116;;;6.66;78.67
62632;BME280;48703;51.248;-0.546;2023-03-15T11:45:17;101110;;;6.73;78.11
62632;BME280;48703;51.248;-0.546;2023-03-15T11:48:19;101112;;;6.82;78.86
62632;BME280;48703;51.248;-0.546;2023-03-15T11:51:20;101109;;;6.91;78.20
62632;BME280;48703;51.248;-0.546;2023-03-15T11:54:22;101112;;;6.99;75.56
62632;BME280;48703;51.248;-0.546;2023-03-15T11:57:41;101118;;;7.09;76.54
62632;BME280;48703;51.248;-0.546;2023-03-15T12:03:31;101110;;;7.26;76.30
62632;BME280;48703;51.248;-0.546;2023-03-15T12:06:33;101109;;;7.36;75.90
62632;BME280;48703;51.248;-0.546;2023-03-15T12:09:46;101104;;;7.41;74.82
62632;BME280;48703;51.248;-0.546;2023-03-15T12:12:34;101101;;;7.44;74.55
62632;BME280;48703;51.248;-0.546;2023-03-15T12:15:40;101096;;;7.47;74.01
62632;BME280;48703;51.248;-0.546;2023-03-15T12:18:39;101092;;;7.51;74.66
62632;BME280;48703;51.248;-0.546;2023-03-15T12:21:40;101089;;;7.59;75.32
62632;BME280;48703;51.248;-0.546;2023-03-15T12:24:42;101082;;;7.65;74.49
62632;BME280;48703;51.248;-0.546;2023-03-15T12:27:45;101083;;;7.70;74.53
62632;BME280;48703;51.248;-0.546;2023-03-15T12:30:46;101084;;;7.73;74.47
62632;BME280;48703;51.248;-0.546;2023-03-15T12:33:49;101084;;;7.76;74.18
62632;BME280;48703;51.248;-0.546;2023-03-15T12:36:50;101086;;;7.78;74.49
62632;BME280;48703;51.248;-0.546;2023-03-15T12:39:58;101076;;;7.80;74.75
62632;BME280;48703;51.248;-0.546;2023-03-15T12:42:59;101070;;;7.83;74.78
62632;BME280;48703;51.248;-0.546;2023-03-15T12:45:56;101064;;;7.83;74.44
62632;BME280;48703;51.248;-0.546;2023-03-15T12:49:05;101056;;;7.82;74.21
62632;BME280;48703;51.248;-0.546;2023-03-15T12:52:00;101054;;;7.81;74.50
62632;BME280;48703;51.248;-0.546;2023-03-15T12:55:03;101052;;;7.84;74.95
62632;BME280;48703;51.248;-0.546;2023-03-15T12:58:05;101051;;;7.85;74.55
62632;BME280;48703;51.248;-0.546;2023-03-15T13:01:06;101054;;;7.86;74.97
62632;BME280;48703;51.248;-0.546;2023-03-15T13:04:08;101061;;;7.86;74.73
62632;BME280;48703;51.248;-0.546;2023-03-15T13:07:15;101065;;;7.85;74.26
62632;BME280;48703;51.248;-0.546;2023-03-15T13:10:19;101066;;;7.84;74.48
62632;BME280;48703;51.248;-0.546;2023-03-15T13:14:23;101063;;;7.83;74.03
62632;BME280;48703;51.248;-0.546;2023-03-15T13:16:19;101060;;;7.84;74.27
62632;BME280;48703;51.248;-0.546;2023-03-15T13:19:19;101060;;;7.84;74.37
62632;BME280;48703;51.248;-0.546;2023-03-15T13:22:22;101058;;;7.84;73.92
62632;BME280;48703;51.248;-0.546;2023-03-15T13:25:24;101053;;;7.82;73.63
62632;BME280;48703;51.248;-0.546;2023-03-15T13:28:24;101046;;;7.81;73.87
62632;BME280;48703;51.248;-0.546;2023-03-15T13:31:26;101041;;;7.80;74.19
62632;BME280;48703;51.248;-0.546;2023-03-15T13:34:28;101035;;;7.79;74.29
62632;BME280;48703;51.248;-0.546;2023-03-15T13:37:30;101032;;;7.81;74.30
62632;BME280;48703;51.248;-0.546;2023-03-15T13:40:32;101029;;;7.81;74.41
62632;BME280;48703;51.248;-0.546;2023-03-15T13:43:35;101025;;;7.83;74.12
62632;BME280;48703;51.248;-0.546;2023-03-15T13:46:36;101014;;;7.84;74.55
62632;BME280;48703;51.248;-0.546;2023-03-15T13:49:38;101005;;;7.84;74.12
62632;BME280;48703;51.248;-0.546;2023-03-15T13:52:40;100998;;;7.83;73.86
62632;BME280;48703;51.248;-0.546;2023-03-15T13:55:42;100996;;;7.82;74.00
62632;BME280;48703;51.248;-0.546;2023-03-15T13:58:44;100993;;;7.84;74.66
62632;BME280;48703;51.248;-0.546;2023-03-15T14:01:47;100985;;;7.85;74.02
62632;BME280;48703;51.248;-0.546;2023-03-15T14:04:49;100984;;;7.86;74.51
62632;BME280;48703;51.248;-0.546;2023-03-15T14:07:53;100981;;;7.88;74.59
62632;BME280;48703;51.248;-0.546;2023-03-15T14:11:01;100977;;;7.90;74.67
62632;BME280;48703;51.248;-0.546;2023-03-15T14:13:55;100974;;;7.91;74.52
62632;BME280;48703;51.248;-0.546;2023-03-15T14:16:57;100969;;;7.90;74.78
62632;BME280;48703;51.248;-0.546;2023-03-15T14:20:02;100970;;;7.87;74.46
62632;BME280;48703;51.248;-0.546;2023-03-15T14:23:00;100972;;;7.84;74.91
62632;BME280;48703;51.248;-0.546;2023-03-15T14:26:05;100970;;;7.82;75.05
62632;BME280;48703;51.248;-0.546;2023-03-15T14:29:05;100965;;;7.82;75.58
62632;BME280;48703;51.248;-0.546;2023-03-15T14:32:07;100963;;;7.84;75.79
62632;BME280;48703;51.248;-0.546;2023-03-15T14:35:17;100960;;;7.88;75.79
62632;BME280;48703;51.248;-0.546;2023-03-15T14:38:14;100960;;;7.94;76.12
62632;BME280;48703;51.248;-0.546;2023-03-15T14:41:17;100962;;;7.98;75.39
62632;BME280;48703;51.248;-0.546;2023-03-15T14:44:14;100959;;;7.99;75.47
62632;BME280;48703;51.248;-0.546;2023-03-15T14:47:16;100955;;;7.99;75.54
62632;BME280;48703;51.248;-0.546;2023-03-15T14:50:19;100952;;;8.01;75.76
62632;BME280;48703;51.248;-0.546;2023-03-15T14:53:21;100948;;;8.04;75.74
62632;BME280;48703;51.248;-0.546;2023-03-15T14:56:22;100944;;;8.08;75.82
62632;BME280;48703;51.248;-0.546;2023-03-15T14:59:24;100942;;;8.11;75.82
62632;BME280;48703;51.248;-0.546;2023-03-15T15:02:26;100936;;;8.12;75.88
62632;BME280;48703;51.248;-0.546;2023-03-15T15:05:29;100935;;;8.13;75.81
62632;BME280;48703;51.248;-0.546;2023-03-15T15:08:30;100929;;;8.14;75.78
62632;BME280;48703;51.248;-0.546;2023-03-15T15:11:32;100928;;;8.14;76.19
62632;BME280;48703;51.248;-0.546;2023-03-15T15:14:34;100925;;;8.15;76.71
62632;BME280;48703;51.248;-0.546;2023-03-15T15:17:36;100921;;;8.16;76.92
62632;BME280;48703;51.248;-0.546;2023-03-15T15:20:38;100916;;;8.19;77.63
62632;BME280;48703;51.248;-0.546;2023-03-15T15:23:41;100912;;;8.19;77.17
62632;BME280;48703;51.248;-0.546;2023-03-15T15:26:42;100916;;;8.15;77.30
62632;BME280;48703;51.248;-0.546;2023-03-15T15:29:44;100918;;;8.09;78.10
62632;BME280;48703;51.248;-0.546;2023-03-15T15:32:46;100912;;;8.04;78.57
62632;BME280;48703;51.248;-0.546;2023-03-15T15:35:48;100915;;;7.99;79.18
62632;BME280;48703;51.248;-0.546;2023-03-15T15:38:50;100911;;;7.94;79.44
62632;BME280;48703;51.248;-0.546;2023-03-15T15:41:52;100909;;;7.89;80.23
62632;BME280;48703;51.248;-0.546;2023-03-15T15:44:54;100907;;;7.86;80.22
62632;BME280;48703;51.248;-0.546;2023-03-15T15:47:56;100904;;;7.82;80.57
62632;BME280;48703;51.248;-0.546;2023-03-15T15:50:58;100904;;;7.77;81.07
62632;BME280;48703;51.248;-0.546;2023-03-15T15:54:00;100901;;;7.73;81.48
62632;BME280;48703;51.248;-0.546;2023-03-15T15:57:02;100897;;;7.70;81.70
62632;BME280;48703;51.248;-0.546;2023-03-15T16:00:06;100890;;;7.66;82.44
62632;BME280;48703;51.248;-0.546;2023-03-15T16:03:09;100887;;;7.65;82.65
62632;BME280;48703;51.248;-0.546;2023-03-15T16:06:12;100888;;;7.63;83.28
62632;BME280;48703;51.248;-0.546;2023-03-15T16:09:10;100883;;;7.60;83.82
62632;BME280;48703;51.248;-0.546;2023-03-15T16:12:13;100872;;;7.59;83.60
62632;BME280;48703;51.248;-0.546;2023-03-15T16:15:15;100872;;;7.57;84.16
62632;BME280;48703;51.248;-0.546;2023-03-15T16:18:16;100869;;;7.55;84.42
62632;BME280;48703;51.248;-0.546;2023-03-15T16:21:21;100868;;;7.55;84.35
62632;BME280;48703;51.248;-0.546;2023-03-15T16:24:21;100869;;;7.54;84.51
62632;BME280;48703;51.248;-0.546;2023-03-15T16:27:23;100860;;;7.52;85.15
62632;BME280;48703;51.248;-0.546;2023-03-15T16:30:25;100859;;;7.50;84.93
62632;BME280;48703;51.248;-0.546;2023-03-15T16:33:26;100856;;;7.49;85.43